sensor_id;sensor_type;location;lat;lon;timestamp;temperature;humidity
10233;DHT22;5161;48.174;11.756;2023-05-10T00:00:13;16.90;80.80
10233;DHT22;5161;48.174;11.756;2023-05-10T00:02:38;16.80;80.60
10233;DHT22;5161;48.174;11.756;2023-05-10T00:05:05;16.80;81.00
10233;DHT22;5161;48.174;11.756;2023-05-10T00:07:30;16.80;81.10
10233;DHT22;5161;48.174;11.756;2023-05-10T00:09:56;16.70;82.10
10233;DHT22;5161;48.174;11.756;2023-05-10T00:12:22;16.70;81.30
10233;DHT22;5161;48.174;11.756;2023-05-10T00:14:47;16.70;81.30
10233;DHT22;5161;48.174;11.756;2023-05-10T00:17:13;16.80;81.50
10233;DHT22;5161;48.174;11.756;2023-05-10T00:19:38;16.70;82.00
10233;DHT22;5161;48.174;11.756;2023-05-10T00:22:04;16.80;81.80
10233;DHT22;5161;48.174;11.756;2023-05-10T00:24:29;16.70;81.50
10233;DHT22;5161;48.174;11.756;2023-05-10T00:26:55;16.70;81.70
10233;DHT22;5161;48.174;11.756;2023-05-10T00:29:20;16.70;82.20
10233;DHT22;5161;48.174;11.756;2023-05-10T00:31:46;16.70;82.30
10233;DHT22;5161;48.174;11.756;2023-05-10T00:34:12;16.70;82.20
10233;DHT22;5161;48.174;11.756;2023-05-10T00:36:37;16.80;82.80
10233;DHT22;5161;48.174;11.756;2023-05-10T00:39:03;16.70;82.40
10233;DHT22;5161;48.174;11.756;2023-05-10T00:41:29;16.70;83.50
10233;DHT22;5161;48.174;11.756;2023-05-10T00:43:57;16.70;83.60
10233;DHT22;5161;48.174;11.756;2023-05-10T00:46:23;16.70;83.00
10233;DHT22;5161;48.174;11.756;2023-05-10T00:48:50;16.60;83.00
10233;DHT22;5161;48.174;11.756;2023-05-10T00:51:15;16.60;83.80
10233;DHT22;5161;48.174;11.756;2023-05-10T00:53:41;16.60;83.30
10233;DHT22;5161;48.174;11.756;2023-05-10T00:56:07;16.60;83.00
10233;DHT22;5161;48.174;11.756;2023-05-10T00:58:33;16.50;83.80
10233;DHT22;5161;48.174;11.756;2023-05-10T01:00:58;16.50;83.20
10233;DHT22;5161;48.174;11.756;2023-05-10T01:03:25;16.50;83.30
10233;DHT22;5161;48.174;11.756;2023-05-10T01:05:51;16.60;83.70
10233;DHT22;5161;48.174;11.756;2023-05-10T01:08:17;16.50;83.60
10233;DHT22;5161;48.174;11.756;2023-05-10T01:10:43;16.50;83.60
10233;DHT22;5161;48.174;11.756;2023-05-10T01:13:09;16.50;84.00
10233;DHT22;5161;48.174;11.756;2023-05-10T01:15:36;16.50;84.30
10233;DHT22;5161;48.174;11.756;2023-05-10T01:18:02;16.40;83.70
10233;DHT22;5161;48.174;11.756;2023-05-10T01:20:35;16.40;84.20
10233;DHT22;5161;48.174;11.756;2023-05-10T01:23:23;16.40;84.70
10233;DHT22;5161;48.174;11.756;2023-05-10T01:36:42;16.20;84.10
10233;DHT22;5161;48.174;11.756;2023-05-10T01:39:15;16.20;84.20
10233;DHT22;5161;48.174;11.756;2023-05-10T01:44:39;16.30;85.20
10233;DHT22;5161;48.174;11.756;2023-05-10T01:47:20;16.30;84.60
10233;DHT22;5161;48.174;11.756;2023-05-10T01:49:52;16.20;84.70
10233;DHT22;5161;48.174;11.756;2023-05-10T01:52:21;16.20;85.50
10233;DHT22;5161;48.174;11.756;2023-05-10T01:55:01;16.20;84.90
10233;DHT22;5161;48.174;11.756;2023-05-10T01:57:33;16.20;85.00
10233;DHT22;5161;48.174;11.756;2023-05-10T02:00:01;16.20;85.30
10233;DHT22;5161;48.174;11.756;2023-05-10T02:02:30;16.10;84.90
10233;DHT22;5161;48.174;11.756;2023-05-10T02:04:59;16.10;85.00
10233;DHT22;5161;48.174;11.756;2023-05-10T02:07:27;16.10;84.70
10233;DHT22;5161;48.174;11.756;2023-05-10T02:09:54;16.10;85.30
10233;DHT22;5161;48.174;11.756;2023-05-10T02:12:20;16.10;85.20
10233;DHT22;5161;48.174;11.756;2023-05-10T02:14:47;16.10;85.20
10233;DHT22;5161;48.174;11.756;2023-05-10T02:17:14;16.10;85.30
10233;DHT22;5161;48.174;11.756;2023-05-10T02:19:41;16.10;85.20
10233;DHT22;5161;48.174;11.756;2023-05-10T02:22:08;16.10;85.30
10233;DHT22;5161;48.174;11.756;2023-05-10T02:24:34;16.20;85.30
10233;DHT22;5161;48.174;11.756;2023-05-10T02:27:02;16.20;85.70
10233;DHT22;5161;48.174;11.756;2023-05-10T02:29:30;16.20;85.60
10233;DHT22;5161;48.174;11.756;2023-05-10T02:31:57;16.20;85.70
10233;DHT22;5161;48.174;11.756;2023-05-10T02:34:25;16.10;85.40
10233;DHT22;5161;48.174;11.756;2023-05-10T02:36:52;15.90;85.70
10233;DHT22;5161;48.174;11.756;2023-05-10T02:39:19;15.90;85.90
10233;DHT22;5161;48.174;11.756;2023-05-10T02:41:46;15.90;86.40
10233;DHT22;5161;48.174;11.756;2023-05-10T02:44:15;15.90;85.90
10233;DHT22;5161;48.174;11.756;2023-05-10T02:46:43;16.00;85.90
10233;DHT22;5161;48.174;11.756;2023-05-10T02:49:08;16.00;86.20
10233;DHT22;5161;48.174;11.756;2023-05-10T02:51:36;16.00;85.90
10233;DHT22;5161;48.174;11.756;2023-05-10T02:54:09;16.00;86.20
10233;DHT22;5161;48.174;11.756;2023-05-10T02:56:36;16.00;85.90
10233;DHT22;5161;48.174;11.756;2023-05-10T02:59:05;15.90;85.90
10233;DHT22;5161;48.174;11.756;2023-05-10T03:01:31;15.90;86.60
10233;DHT22;5161;48.174;11.756;2023-05-10T03:03:57;16.00;86.50
10233;DHT22;5161;48.174;11.756;2023-05-10T03:06:23;15.90;86.50
10233;DHT22;5161;48.174;11.756;2023-05-10T03:08:49;15.90;86.20
10233;DHT22;5161;48.174;11.756;2023-05-10T03:11:43;15.90;86.30
10233;DHT22;5161;48.174;11.756;2023-05-10T03:17:14;15.90;86.60
10233;DHT22;5161;48.174;11.756;2023-05-10T03:19:52;15.90;86.70
10233;DHT22;5161;48.174;11.756;2023-05-10T03:22:24;15.90;87.20
10233;DHT22;5161;48.174;11.756;2023-05-10T03:24:53;15.90;87.10
10233;DHT22;5161;48.174;11.756;2023-05-10T03:27:20;15.80;87.10
10233;DHT22;5161;48.174;11.756;2023-05-10T03:29:47;15.80;87.10
10233;DHT22;5161;48.174;11.756;2023-05-10T03:32:13;15.80;87.10
10233;DHT22;5161;48.174;11.756;2023-05-10T03:34:42;15.80;87.60
10233;DHT22;5161;48.174;11.756;2023-05-10T03:37:08;15.80;87.70
10233;DHT22;5161;48.174;11.756;2023-05-10T03:39:34;15.80;87.80
10233;DHT22;5161;48.174;11.756;2023-05-10T03:41:59;15.80;87.70
10233;DHT22;5161;48.174;11.756;2023-05-10T03:44:25;15.80;87.60
10233;DHT22;5161;48.174;11.756;2023-05-10T03:46:51;15.80;87.50
10233;DHT22;5161;48.174;11.756;2023-05-10T03:49:16;15.80;87.90
10233;DHT22;5161;48.174;11.756;2023-05-10T03:51:42;15.80;87.60
10233;DHT22;5161;48.174;11.756;2023-05-10T03:54:07;15.70;88.20
10233;DHT22;5161;48.174;11.756;2023-05-10T03:56:34;15.80;88.00
10233;DHT22;5161;48.174;11.756;2023-05-10T03:59:00;15.70;87.90
10233;DHT22;5161;48.174;11.756;2023-05-10T04:01:25;15.70;88.20
10233;DHT22;5161;48.174;11.756;2023-05-10T04:03:51;15.70;88.50
10233;DHT22;5161;48.174;11.756;2023-05-10T04:06:17;15.60;87.70
10233;DHT22;5161;48.174;11.756;2023-05-10T04:08:42;15.60;88.00
10233;DHT22;5161;48.174;11.756;2023-05-10T04:11:09;15.70;89.00
10233;DHT22;5161;48.174;11.756;2023-05-10T04:13:36;15.70;88.90
10233;DHT22;5161;48.174;11.756;2023-05-10T04:16:02;15.70;88.60
10233;DHT22;5161;48.174;11.756;2023-05-10T04:18:27;15.70;88.70
10233;DHT22;5161;48.174;11.756;2023-05-10T04:20:53;15.70;88.90
10233;DHT22;5161;48.174;11.756;2023-05-10T04:23:18;15.60;89.10
10233;DHT22;5161;48.174;11.756;2023-05-10T04:25:44;15.60;88.80
10233;DHT22;5161;48.174;11.756;2023-05-10T04:28:10;15.60;89.00
10233;DHT22;5161;48.174;11.756;2023-05-10T04:30:35;15.50;88.60
10233;DHT22;5161;48.174;11.756;2023-05-10T04:33:01;15.60;89.00
10233;DHT22;5161;48.174;11.756;2023-05-10T04:35:29;15.60;88.70
10233;DHT22;5161;48.174;11.756;2023-05-10T04:37:55;15.70;89.20
10233;DHT22;5161;48.174;11.756;2023-05-10T04:40:20;15.50;89.30
10233;DHT22;5161;48.174;11.756;2023-05-10T04:42:46;15.50;89.80
10233;DHT22;5161;48.174;11.756;2023-05-10T04:45:12;15.50;89.30
10233;DHT22;5161;48.174;11.756;2023-05-10T04:47:39;15.50;89.70
10233;DHT22;5161;48.174;11.756;2023-05-10T04:50:05;15.50;90.00
10233;DHT22;5161;48.174;11.756;2023-05-10T04:52:31;15.50;90.30
10233;DHT22;5161;48.174;11.756;2023-05-10T04:54:57;15.50;89.70
10233;DHT22;5161;48.174;11.756;2023-05-10T04:57:22;15.40;90.00
10233;DHT22;5161;48.174;11.756;2023-05-10T04:59:48;15.40;90.30
10233;DHT22;5161;48.174;11.756;2023-05-10T05:02:13;15.50;90.40
10233;DHT22;5161;48.174;11.756;2023-05-10T05:04:39;15.50;90.20
10233;DHT22;5161;48.174;11.756;2023-05-10T05:07:04;15.40;90.20
10233;DHT22;5161;48.174;11.756;2023-05-10T05:09:30;15.50;90.30
10233;DHT22;5161;48.174;11.756;2023-05-10T05:11:57;15.50;90.50
10233;DHT22;5161;48.174;11.756;2023-05-10T05:14:23;15.50;90.30
10233;DHT22;5161;48.174;11.756;2023-05-10T05:16:50;15.50;90.50
10233;DHT22;5161;48.174;11.756;2023-05-10T05:19:16;15.50;90.50
10233;DHT22;5161;48.174;11.756;2023-05-10T05:21:42;15.50;90.50
10233;DHT22;5161;48.174;11.756;2023-05-10T05:24:07;15.50;90.40
10233;DHT22;5161;48.174;11.756;2023-05-10T05:26:33;15.50;90.70
10233;DHT22;5161;48.174;11.756;2023-05-10T05:28:58;15.30;90.50
10233;DHT22;5161;48.174;11.756;2023-05-10T05:31:24;15.30;90.50
10233;DHT22;5161;48.174;11.756;2023-05-10T05:33:50;15.40;90.60
10233;DHT22;5161;48.174;11.756;2023-05-10T05:36:16;15.40;90.60
10233;DHT22;5161;48.174;11.756;2023-05-10T05:38:41;15.50;90.60
10233;DHT22;5161;48.174;11.756;2023-05-10T05:41:08;15.40;90.40
10233;DHT22;5161;48.174;11.756;2023-05-10T05:43:33;15.40;90.50
10233;DHT22;5161;48.174;11.756;2023-05-10T05:45:59;15.30;90.50
10233;DHT22;5161;48.174;11.756;2023-05-10T05:48:25;15.30;90.50
10233;DHT22;5161;48.174;11.756;2023-05-10T05:50:53;15.20;90.40
10233;DHT22;5161;48.174;11.756;2023-05-10T05:53:19;15.20;90.20
10233;DHT22;5161;48.174;11.756;2023-05-10T05:55:55;15.20;90.30
10233;DHT22;5161;48.174;11.756;2023-05-10T05:58:21;15.20;90.00
10233;DHT22;5161;48.174;11.756;2023-05-10T06:00:47;15.20;90.20
10233;DHT22;5161;48.174;11.756;2023-05-10T06:03:13;15.20;90.10
10233;DHT22;5161;48.174;11.756;2023-05-10T06:05:39;15.20;90.10
10233;DHT22;5161;48.174;11.756;2023-05-10T06:08:04;15.20;90.00
10233;DHT22;5161;48.174;11.756;2023-05-10T06:10:30;15.20;90.00
10233;DHT22;5161;48.174;11.756;2023-05-10T06:12:56;15.10;90.10
10233;DHT22;5161;48.174;11.756;2023-05-10T06:15:22;15.20;90.00
10233;DHT22;5161;48.174;11.756;2023-05-10T06:17:47;15.10;90.00
10233;DHT22;5161;48.174;11.756;2023-05-10T06:20:15;15.10;90.00
10233;DHT22;5161;48.174;11.756;2023-05-10T06:22:41;15.20;90.10
10233;DHT22;5161;48.174;11.756;2023-05-10T06:25:07;15.20;90.00
10233;DHT22;5161;48.174;11.756;2023-05-10T06:27:32;15.10;89.90
10233;DHT22;5161;48.174;11.756;2023-05-10T06:29:58;15.10;90.00
10233;DHT22;5161;48.174;11.756;2023-05-10T06:32:24;15.20;90.00
10233;DHT22;5161;48.174;11.756;2023-05-10T06:34:50;15.10;90.00
10233;DHT22;5161;48.174;11.756;2023-05-10T06:37:15;15.10;90.00
10233;DHT22;5161;48.174;11.756;2023-05-10T06:39:41;15.20;89.80
10233;DHT22;5161;48.174;11.756;2023-05-10T06:42:06;15.20;89.80
10233;DHT22;5161;48.174;11.756;2023-05-10T06:44:32;15.30;89.80
10233;DHT22;5161;48.174;11.756;2023-05-10T06:46:57;15.30;89.60
10233;DHT22;5161;48.174;11.756;2023-05-10T06:49:23;15.30;90.10
10233;DHT22;5161;48.174;11.756;2023-05-10T06:51:49;15.30;89.70
10233;DHT22;5161;48.174;11.756;2023-05-10T06:54:14;15.30;90.00
10233;DHT22;5161;48.174;11.756;2023-05-10T06:56:40;15.30;90.10
10233;DHT22;5161;48.174;11.756;2023-05-10T06:59:05;15.30;90.00
10233;DHT22;5161;48.174;11.756;2023-05-10T07:01:32;15.40;90.10
10233;DHT22;5161;48.174;11.756;2023-05-10T07:03:57;15.40;90.10
10233;DHT22;5161;48.174;11.756;2023-05-10T07:06:23;15.40;90.00
10233;DHT22;5161;48.174;11.756;2023-05-10T07:08:48;15.40;89.60
10233;DHT22;5161;48.174;11.756;2023-05-10T07:11:14;15.40;89.90
10233;DHT22;5161;48.174;11.756;2023-05-10T07:13:39;15.40;90.00
10233;DHT22;5161;48.174;11.756;2023-05-10T07:16:09;15.50;89.60
10233;DHT22;5161;48.174;11.756;2023-05-10T07:18:35;15.50;89.80
10233;DHT22;5161;48.174;11.756;2023-05-10T07:21:01;15.50;89.80
10233;DHT22;5161;48.174;11.756;2023-05-10T07:23:26;15.60;90.00
10233;DHT22;5161;48.174;11.756;2023-05-10T07:25:52;15.60;89.70
10233;DHT22;5161;48.174;11.756;2023-05-10T07:28:18;15.70;89.90
10233;DHT22;5161;48.174;11.756;2023-05-10T07:30:44;15.70;90.00
10233;DHT22;5161;48.174;11.756;2023-05-10T07:33:12;15.80;89.70
10233;DHT22;5161;48.174;11.756;2023-05-10T07:35:39;15.80;90.00
10233;DHT22;5161;48.174;11.756;2023-05-10T07:38:04;15.90;90.00
10233;DHT22;5161;48.174;11.756;2023-05-10T07:40:30;15.90;90.00
10233;DHT22;5161;48.174;11.756;2023-05-10T07:42:56;15.90;89.90
10233;DHT22;5161;48.174;11.756;2023-05-10T07:45:22;15.90;89.80
10233;DHT22;5161;48.174;11.756;2023-05-10T07:47:48;15.90;89.30
10233;DHT22;5161;48.174;11.756;2023-05-10T07:50:13;15.90;89.70
10233;DHT22;5161;48.174;11.756;2023-05-10T07:52:39;15.90;89.90
10233;DHT22;5161;48.174;11.756;2023-05-10T07:55:05;15.90;89.50
10233;DHT22;5161;48.174;11.756;2023-05-10T07:57:35;16.00;88.80
10233;DHT22;5161;48.174;11.756;2023-05-10T08:00:01;16.00;89.50
10233;DHT22;5161;48.174;11.756;2023-05-10T08:02:27;16.00;88.60
10233;DHT22;5161;48.174;11.756;2023-05-10T08:04:53;16.00;88.50
10233;DHT22;5161;48.174;11.756;2023-05-10T08:07:18;16.10;88.70
10233;DHT22;5161;48.174;11.756;2023-05-10T08:09:44;16.10;88.70
10233;DHT22;5161;48.174;11.756;2023-05-10T08:12:09;16.10;88.10
10233;DHT22;5161;48.174;11.756;2023-05-10T08:14:35;16.10;86.90
10233;DHT22;5161;48.174;11.756;2023-05-10T08:17:02;16.10;87.90
10233;DHT22;5161;48.174;11.756;2023-05-10T08:19:28;16.10;87.60
10233;DHT22;5161;48.174;11.756;2023-05-10T08:21:54;16.10;87.70
10233;DHT22;5161;48.174;11.756;2023-05-10T08:24:21;16.20;87.40
10233;DHT22;5161;48.174;11.756;2023-05-10T08:26:47;16.20;87.70
10233;DHT22;5161;48.174;11.756;2023-05-10T08:29:13;16.20;87.50
10233;DHT22;5161;48.174;11.756;2023-05-10T08:31:39;16.30;86.30
10233;DHT22;5161;48.174;11.756;2023-05-10T08:34:05;16.40;87.30
10233;DHT22;5161;48.174;11.756;2023-05-10T08:36:30;16.30;86.50
10233;DHT22;5161;48.174;11.756;2023-05-10T08:38:57;16.30;86.30
10233;DHT22;5161;48.174;11.756;2023-05-10T08:41:24;16.30;86.70
10233;DHT22;5161;48.174;11.756;2023-05-10T08:43:51;16.30;86.10
10233;DHT22;5161;48.174;11.756;2023-05-10T08:46:18;16.40;86.20
10233;DHT22;5161;48.174;11.756;2023-05-10T08:48:45;16.40;85.70
10233;DHT22;5161;48.174;11.756;2023-05-10T08:51:14;16.40;85.40
10233;DHT22;5161;48.174;11.756;2023-05-10T08:53:40;16.40;85.40
10233;DHT22;5161;48.174;11.756;2023-05-10T08:56:06;16.40;85.80
10233;DHT22;5161;48.174;11.756;2023-05-10T08:58:32;16.60;85.70
10233;DHT22;5161;48.174;11.756;2023-05-10T09:00:58;16.70;84.10
10233;DHT22;5161;48.174;11.756;2023-05-10T09:03:24;16.60;84.00
10233;DHT22;5161;48.174;11.756;2023-05-10T09:05:50;16.60;85.20
10233;DHT22;5161;48.174;11.756;2023-05-10T09:08:16;16.70;84.80
10233;DHT22;5161;48.174;11.756;2023-05-10T09:10:44;16.80;85.00
10233;DHT22;5161;48.174;11.756;2023-05-10T09:13:14;16.80;84.60
10233;DHT22;5161;48.174;11.756;2023-05-10T09:15:40;16.80;84.00
10233;DHT22;5161;48.174;11.756;2023-05-10T09:18:06;16.80;83.50
10233;DHT22;5161;48.174;11.756;2023-05-10T09:20:32;16.90;83.50
10233;DHT22;5161;48.174;11.756;2023-05-10T09:22:57;16.80;83.10
10233;DHT22;5161;48.174;11.756;2023-05-10T09:25:23;16.80;83.30
10233;DHT22;5161;48.174;11.756;2023-05-10T09:27:49;16.80;83.50
10233;DHT22;5161;48.174;11.756;2023-05-10T09:30:25;16.90;83.30
10233;DHT22;5161;48.174;11.756;2023-05-10T09:32:52;17.00;83.90
10233;DHT22;5161;48.174;11.756;2023-05-10T09:35:19;17.00;82.70
10233;DHT22;5161;48.174;11.756;2023-05-10T09:37:49;17.10;82.50
10233;DHT22;5161;48.174;11.756;2023-05-10T09:40:20;17.10;82.60
10233;DHT22;5161;48.174;11.756;2023-05-10T09:42:56;17.10;82.10
10233;DHT22;5161;48.174;11.756;2023-05-10T09:45:23;17.20;82.00
10233;DHT22;5161;48.174;11.756;2023-05-10T09:47:49;17.20;82.20
10233;DHT22;5161;48.174;11.756;2023-05-10T09:50:15;17.30;81.60
10233;DHT22;5161;48.174;11.756;2023-05-10T09:52:57;17.20;81.80
10233;DHT22;5161;48.174;11.756;2023-05-10T09:55:25;17.10;80.20
10233;DHT22;5161;48.174;11.756;2023-05-10T09:58:01;17.00;81.40
10233;DHT22;5161;48.174;11.756;2023-05-10T10:00:27;16.90;81.40
10233;DHT22;5161;48.174;11.756;2023-05-10T10:02:57;16.80;81.80
10233;DHT22;5161;48.174;11.756;2023-05-10T10:05:31;16.80;82.30
10233;DHT22;5161;48.174;11.756;2023-05-10T10:07:57;16.80;82.70
10233;DHT22;5161;48.174;11.756;2023-05-10T10:10:27;16.70;82.80
10233;DHT22;5161;48.174;11.756;2023-05-10T10:12:53;16.70;83.10
10233;DHT22;5161;48.174;11.756;2023-05-10T10:15:21;16.70;83.30
10233;DHT22;5161;48.174;11.756;2023-05-10T10:17:48;16.70;83.40
10233;DHT22;5161;48.174;11.756;2023-05-10T10:20:15;16.80;83.70
10233;DHT22;5161;48.174;11.756;2023-05-10T10:22:41;16.80;83.80
10233;DHT22;5161;48.174;11.756;2023-05-10T10:25:08;16.80;83.60
10233;DHT22;5161;48.174;11.756;2023-05-10T10:30:59;16.90;83.80
10233;DHT22;5161;48.174;11.756;2023-05-10T10:35:31;16.90;83.60
10233;DHT22;5161;48.174;11.756;2023-05-10T10:37:57;17.00;83.40
10233;DHT22;5161;48.174;11.756;2023-05-10T10:40:30;17.00;83.50
10233;DHT22;5161;48.174;11.756;2023-05-10T10:42:57;17.10;83.50
10233;DHT22;5161;48.174;11.756;2023-05-10T10:45:26;17.20;83.70
10233;DHT22;5161;48.174;11.756;2023-05-10T10:48:21;17.30;83.80
10233;DHT22;5161;48.174;11.756;2023-05-10T10:50:47;17.30;83.70
10233;DHT22;5161;48.174;11.756;2023-05-10T10:53:12;17.40;83.60
10233;DHT22;5161;48.174;11.756;2023-05-10T10:55:48;17.40;83.70
10233;DHT22;5161;48.174;11.756;2023-05-10T10:58:33;17.50;84.00
10233;DHT22;5161;48.174;11.756;2023-05-10T11:03:35;17.70;84.20
10233;DHT22;5161;48.174;11.756;2023-05-10T11:06:01;17.80;84.00
10233;DHT22;5161;48.174;11.756;2023-05-10T11:08:33;17.70;83.60
10233;DHT22;5161;48.174;11.756;2023-05-10T11:15:59;17.50;82.80
10233;DHT22;5161;48.174;11.756;2023-05-10T11:18:27;17.40;82.90
10233;DHT22;5161;48.174;11.756;2023-05-10T11:20:58;17.50;82.90
10233;DHT22;5161;48.174;11.756;2023-05-10T11:26:07;17.50;83.10
10233;DHT22;5161;48.174;11.756;2023-05-10T11:28:40;17.50;83.20
10233;DHT22;5161;48.174;11.756;2023-05-10T11:31:06;17.60;82.70
10233;DHT22;5161;48.174;11.756;2023-05-10T11:33:49;17.60;83.20
10233;DHT22;5161;48.174;11.756;2023-05-10T11:36:19;17.60;83.20
10233;DHT22;5161;48.174;11.756;2023-05-10T11:38:46;17.50;82.90
10233;DHT22;5161;48.174;11.756;2023-05-10T11:41:12;17.50;83.00
10233;DHT22;5161;48.174;11.756;2023-05-10T11:43:42;17.50;83.00
10233;DHT22;5161;48.174;11.756;2023-05-10T11:46:12;17.50;82.70
10233;DHT22;5161;48.174;11.756;2023-05-10T11:48:42;17.40;82.40
10233;DHT22;5161;48.174;11.756;2023-05-10T11:51:08;17.40;82.60
10233;DHT22;5161;48.174;11.756;2023-05-10T11:53:34;17.40;82.50
10233;DHT22;5161;48.174;11.756;2023-05-10T11:56:07;17.40;82.70
10233;DHT22;5161;48.174;11.756;2023-05-10T11:58:33;17.40;82.70
10233;DHT22;5161;48.174;11.756;2023-05-10T12:00:59;17.30;82.60
10233;DHT22;5161;48.174;11.756;2023-05-10T12:03:26;17.30;82.90
10233;DHT22;5161;48.174;11.756;2023-05-10T12:05:52;17.30;82.90
10233;DHT22;5161;48.174;11.756;2023-05-10T12:08:22;17.20;82.60
10233;DHT22;5161;48.174;11.756;2023-05-10T12:10:48;17.10;82.50
10233;DHT22;5161;48.174;11.756;2023-05-10T12:13:14;17.10;82.40
10233;DHT22;5161;48.174;11.756;2023-05-10T12:15:41;17.10;82.50
10233;DHT22;5161;48.174;11.756;2023-05-10T12:18:11;17.00;80.70
10233;DHT22;5161;48.174;11.756;2023-05-10T12:20:38;16.80;81.20
10233;DHT22;5161;48.174;11.756;2023-05-10T12:23:04;16.60;81.30
10233;DHT22;5161;48.174;11.756;2023-05-10T12:25:32;16.60;82.50
10233;DHT22;5161;48.174;11.756;2023-05-10T12:27:58;16.60;82.70
10233;DHT22;5161;48.174;11.756;2023-05-10T12:30:27;16.50;83.30
10233;DHT22;5161;48.174;11.756;2023-05-10T12:32:58;16.40;83.50
10233;DHT22;5161;48.174;11.756;2023-05-10T12:35:24;16.30;83.10
10233;DHT22;5161;48.174;11.756;2023-05-10T12:37:50;16.30;83.40
10233;DHT22;5161;48.174;11.756;2023-05-10T12:40:16;16.20;83.60
10233;DHT22;5161;48.174;11.756;2023-05-10T12:42:42;16.30;84.30
10233;DHT22;5161;48.174;11.756;2023-05-10T12:45:10;16.20;84.20
10233;DHT22;5161;48.174;11.756;2023-05-10T12:47:36;16.10;84.60
10233;DHT22;5161;48.174;11.756;2023-05-10T12:50:02;16.10;84.10
10233;DHT22;5161;48.174;11.756;2023-05-10T12:52:28;16.10;83.80
10233;DHT22;5161;48.174;11.756;2023-05-10T12:54:54;16.00;84.00
10233;DHT22;5161;48.174;11.756;2023-05-10T12:57:20;16.00;84.00
10233;DHT22;5161;48.174;11.756;2023-05-10T12:59:47;16.00;84.20
10233;DHT22;5161;48.174;11.756;2023-05-10T13:02:12;16.00;84.20
10233;DHT22;5161;48.174;11.756;2023-05-10T13:04:40;16.00;84.30
10233;DHT22;5161;48.174;11.756;2023-05-10T13:07:09;16.00;84.40
10233;DHT22;5161;48.174;11.756;2023-05-10T13:09:35;16.00;84.50
10233;DHT22;5161;48.174;11.756;2023-05-10T13:12:00;16.00;84.80
10233;DHT22;5161;48.174;11.756;2023-05-10T13:14:26;16.00;84.70
10233;DHT22;5161;48.174;11.756;2023-05-10T13:16:52;16.00;84.90
10233;DHT22;5161;48.174;11.756;2023-05-10T13:19:17;16.00;85.00
10233;DHT22;5161;48.174;11.756;2023-05-10T13:21:43;16.00;85.00
10233;DHT22;5161;48.174;11.756;2023-05-10T13:24:12;16.00;85.30
10233;DHT22;5161;48.174;11.756;2023-05-10T13:26:42;16.00;85.90
10233;DHT22;5161;48.174;11.756;2023-05-10T13:29:08;15.90;85.40
10233;DHT22;5161;48.174;11.756;2023-05-10T13:31:34;16.00;85.80
10233;DHT22;5161;48.174;11.756;2023-05-10T13:34:01;16.00;85.20
10233;DHT22;5161;48.174;11.756;2023-05-10T13:36:26;16.00;84.70
10233;DHT22;5161;48.174;11.756;2023-05-10T13:38:52;15.90;84.10
10233;DHT22;5161;48.174;11.756;2023-05-10T13:41:18;15.90;84.30
10233;DHT22;5161;48.174;11.756;2023-05-10T13:43:43;15.90;84.40
10233;DHT22;5161;48.174;11.756;2023-05-10T13:46:09;15.90;84.10
10233;DHT22;5161;48.174;11.756;2023-05-10T13:48:34;15.90;83.70
10233;DHT22;5161;48.174;11.756;2023-05-10T13:51:02;15.80;84.00
10233;DHT22;5161;48.174;11.756;2023-05-10T13:53:27;15.90;84.20
10233;DHT22;5161;48.174;11.756;2023-05-10T13:55:53;15.90;83.80
10233;DHT22;5161;48.174;11.756;2023-05-10T13:58:18;15.90;83.60
10233;DHT22;5161;48.174;11.756;2023-05-10T14:00:44;15.90;84.00
10233;DHT22;5161;48.174;11.756;2023-05-10T14:03:10;15.90;84.00
10233;DHT22;5161;48.174;11.756;2023-05-10T14:05:36;16.00;84.10
10233;DHT22;5161;48.174;11.756;2023-05-10T14:08:02;16.00;84.20
10233;DHT22;5161;48.174;11.756;2023-05-10T14:10:28;16.00;84.10
10233;DHT22;5161;48.174;11.756;2023-05-10T14:12:53;16.00;84.00
10233;DHT22;5161;48.174;11.756;2023-05-10T14:15:19;16.00;84.10
10233;DHT22;5161;48.174;11.756;2023-05-10T14:17:44;16.00;84.10
10233;DHT22;5161;48.174;11.756;2023-05-10T14:20:11;16.00;84.20
10233;DHT22;5161;48.174;11.756;2023-05-10T14:22:36;16.00;85.00
10233;DHT22;5161;48.174;11.756;2023-05-10T14:25:02;16.00;84.90
10233;DHT22;5161;48.174;11.756;2023-05-10T14:27:28;15.90;84.80
10233;DHT22;5161;48.174;11.756;2023-05-10T14:29:54;15.90;85.20
10233;DHT22;5161;48.174;11.756;2023-05-10T14:32:19;15.90;85.70
10233;DHT22;5161;48.174;11.756;2023-05-10T14:34:45;15.80;86.20
10233;DHT22;5161;48.174;11.756;2023-05-10T14:37:13;15.80;85.70
10233;DHT22;5161;48.174;11.756;2023-05-10T14:39:38;15.70;85.60
10233;DHT22;5161;48.174;11.756;2023-05-10T14:42:04;15.60;85.90
10233;DHT22;5161;48.174;11.756;2023-05-10T14:44:30;15.70;86.50
10233;DHT22;5161;48.174;11.756;2023-05-10T14:46:55;15.70;86.60
10233;DHT22;5161;48.174;11.756;2023-05-10T14:49:22;15.60;86.20
10233;DHT22;5161;48.174;11.756;2023-05-10T14:51:50;15.50;86.20
10233;DHT22;5161;48.174;11.756;2023-05-10T14:54:15;15.60;86.20
10233;DHT22;5161;48.174;11.756;2023-05-10T14:56:41;15.60;87.40
10233;DHT22;5161;48.174;11.756;2023-05-10T14:59:07;15.50;86.80
10233;DHT22;5161;48.174;11.756;2023-05-10T15:01:33;15.60;86.50
10233;DHT22;5161;48.174;11.756;2023-05-10T15:04:00;15.60;86.90
10233;DHT22;5161;48.174;11.756;2023-05-10T15:06:35;15.60;86.60
10233;DHT22;5161;48.174;11.756;2023-05-10T15:09:01;15.60;87.10
10233;DHT22;5161;48.174;11.756;2023-05-10T15:11:28;15.50;86.90
10233;DHT22;5161;48.174;11.756;2023-05-10T15:13:54;15.50;86.60
10233;DHT22;5161;48.174;11.756;2023-05-10T15:16:20;15.50;86.80
10233;DHT22;5161;48.174;11.756;2023-05-10T15:18:46;15.50;86.40
10233;DHT22;5161;48.174;11.756;2023-05-10T15:21:11;15.40;85.90
10233;DHT22;5161;48.174;11.756;2023-05-10T15:23:37;15.40;86.30
10233;DHT22;5161;48.174;11.756;2023-05-10T15:26:03;15.30;86.30
10233;DHT22;5161;48.174;11.756;2023-05-10T15:28:28;15.40;86.30
10233;DHT22;5161;48.174;11.756;2023-05-10T15:30:55;15.30;86.10
10233;DHT22;5161;48.174;11.756;2023-05-10T15:33:20;15.10;86.40
10233;DHT22;5161;48.174;11.756;2023-05-10T15:35:46;15.20;86.50
10233;DHT22;5161;48.174;11.756;2023-05-10T15:38:11;15.10;86.30
10233;DHT22;5161;48.174;11.756;2023-05-10T15:40:37;15.00;86.40
10233;DHT22;5161;48.174;11.756;2023-05-10T15:43:02;15.00;86.80
10233;DHT22;5161;48.174;11.756;2023-05-10T15:45:28;14.90;86.30
10233;DHT22;5161;48.174;11.756;2023-05-10T15:47:54;14.90;86.90
10233;DHT22;5161;48.174;11.756;2023-05-10T15:50:20;14.90;86.50
10233;DHT22;5161;48.174;11.756;2023-05-10T15:52:45;14.90;86.60
10233;DHT22;5161;48.174;11.756;2023-05-10T15:55:11;15.00;87.00
10233;DHT22;5161;48.174;11.756;2023-05-10T15:57:38;15.00;87.10
10233;DHT22;5161;48.174;11.756;2023-05-10T16:00:05;15.00;87.00